1871 Hurricane NOT_NAMED (1871249N16318)


IBTrACS version v04r00. Visit IBTrACS website for data access.
Please direct all questions to the IBTrACS Q and A forum

Storm track - Intensity - Wind Radii - Intensity Data - Source Data - All data

Summary Information

Storm ID 1871249N16318
Start Sep 5 12Z
Max Intensity 70 kt (Sep 11 18Z), 985 mb (Sep 14 00Z)
End Sep 14 18Z
ATCF IDs
Track status Best track data.

Storm track plot

Map of storm track

Intensity plots

Map of storm track

Radial wind information

No radial wind information for this storm


Position and Intensity Table

BASIN ISO_TIME_________ NATURE LAT LON MLC WIND MLC PRES
degrees north degrees east kts mb
NA 1871-09-05 12:00:00 TS 16.00 -42.50 30
NA 15:00:00 TS 16.36 -43.00 30
NA 18:00:00 TS 16.70 -43.50 30
NA 21:00:00 TS 17.01 -44.00 30
NA 1871-09-06 00:00:00 TS 17.30 -44.50 30
NA 03:00:00 TS 17.60 -45.00 30
NA 06:00:00 TS 17.90 -45.50 30
NA 09:00:00 TS 18.18 -46.00 32
NA 12:00:00 TS 18.50 -46.50 35
NA 15:00:00 TS 18.89 -47.00 35
NA 18:00:00 TS 19.30 -47.50 35
NA 21:00:00 TS 19.65 -48.02 35
NA 1871-09-07 00:00:00 TS 20.00 -48.50 35
NA 03:00:00 TS 20.40 -48.92 35
NA 06:00:00 TS 20.80 -49.30 35
NA 09:00:00 TS 21.14 -49.66 37
NA 12:00:00 TS 21.50 -50.00 40
NA 15:00:00 TS 21.93 -50.35 40
NA 18:00:00 TS 22.40 -50.70 40
NA 21:00:00 TS 22.85 -51.05 40
NA 1871-09-08 00:00:00 TS 23.30 -51.40 40
NA 03:00:00 TS 23.76 -51.76 40
NA 06:00:00 TS 24.20 -52.10 40
NA 09:00:00 TS 24.61 -52.42 42
NA 12:00:00 TS 25.00 -52.70 45
NA 15:00:00 TS 25.41 -52.97 45
NA 18:00:00 TS 25.80 -53.20 45
NA 21:00:00 TS 26.15 -53.40 45
NA 1871-09-09 00:00:00 TS 26.50 -53.60 45
NA 03:00:00 TS 26.90 -53.85 45
NA 06:00:00 TS 27.30 -54.10 45
NA 09:00:00 TS 27.63 -54.32 47
NA 12:00:00 TS 28.00 -54.50 50
NA 15:00:00 TS 28.53 -54.68 50
NA 18:00:00 TS 29.10 -54.80 50
NA 21:00:00 TS 29.60 -54.82 50
NA 1871-09-10 00:00:00 TS 30.10 -54.80 50
NA 03:00:00 TS 30.65 -54.80 50
NA 06:00:00 TS 31.20 -54.80 50
NA 09:00:00 TS 31.68 -54.79 52
NA 12:00:00 TS 32.20 -54.80 55
NA 15:00:00 TS 32.84 -54.91 55
NA 18:00:00 TS 33.50 -55.00 55
NA 21:00:00 TS 34.10 -54.97 57
NA 1871-09-11 00:00:00 TS 34.70 -54.90 60
NA 03:00:00 TS 35.35 -54.84 60
NA 06:00:00 TS 36.00 -54.80 60
NA 09:00:00 TS 36.58 -54.87 60
NA 12:00:00 TS 37.20 -54.80 60
NA 15:00:00 TS 37.97 -54.39 65
NA 18:00:00 TS 38.80 -53.80 70
NA 21:00:00 TS 39.66 -53.23 70
NA 1871-09-12 00:00:00 TS 40.40 -52.60 70
NA 03:00:00 TS 40.87 -51.96 70
NA 06:00:00 TS 41.20 -51.20 70
NA 09:00:00 TS 41.55 -50.25 70
NA 12:00:00 TS 41.90 -49.10 70
NA 15:00:00 TS 42.29 -47.76 70
NA 18:00:00 TS 42.70 -46.40 70
NA 21:00:00 TS 43.10 -45.23 70
NA 1871-09-13 00:00:00 TS 43.60 -44.10 70
NA 03:00:00 TS 44.26 -42.87 70
NA 06:00:00 TS 45.00 -41.60 70
NA 09:00:00 TS 45.70 -40.27 70
NA 12:00:00 TS 46.40 -39.00 70
NA 15:00:00 TS 47.10 -37.91 70
NA 18:00:00 TS 47.80 -36.90 70
NA 21:00:00 TS 48.51 -35.83 70
NA 1871-09-14 00:00:00 TS 49.20 -34.80 70 985
NA 03:00:00 TS 49.82 -33.92 67
NA 06:00:00 TS 50.40 -32.90 65
NA 09:00:00 TS 50.96 -31.45 62
NA 12:00:00 ET 51.50 -29.80 60
NA 15:00:00 ET 52.05 -28.15 60
NA 18:00:00 ET 52.60 -26.50 60

Source Information

Agency Information
USA
TOKYO
CMA
HKO
NEWDELHI
REUNION
BOM
NADI
WELLINGTON
DS824
TD9636
TD9635
NEUMANN
MLC

All available IBTrACS Data

SEASON BASIN SUBBASIN ISO_TIME_________ NATURE LAT LON DIST2LAND LANDFALL IFLAG USA SSHS MLC LAT MLC LON MLC CLASS MLC WIND MLC PRES STORM SPEED STORM DIR
Year degrees north degrees east km km 1 degrees north degrees east kts mb kts degrees
1871 NA NA 1871-09-05 12:00:00 TS 16.00 -42.50 1625 1619 _____________O -1 16.00 -42.50 TD 30 12 307
1871 NA NA 15:00:00 TS 16.36 -43.00 1630 1623 _____________P -1 16.36 -43.00 TD 30 12 306
1871 NA NA 18:00:00 TS 16.70 -43.50 1625 1617 _____________O -1 16.70 -43.50 TD 30 12 304
1871 NA NA 21:00:00 TS 17.01 -44.00 1620 1613 _____________P -1 17.01 -44.00 TD 30 11 302
1871 NA NA 1871-09-06 00:00:00 TS 17.30 -44.50 1616 1608 _____________O -1 17.30 -44.50 TD 30 11 302
1871 NA NA 03:00:00 TS 17.60 -45.00 1616 1610 _____________P -1 17.60 -45.00 TD 30 11 302
1871 NA NA 06:00:00 TS 17.90 -45.50 1618 1612 _____________O -1 17.90 -45.50 TD 30 11 302
1871 NA NA 09:00:00 TS 18.18 -46.00 1622 1617 _____________P -1 18.18 -46.00 TD 32 11 302
1871 NA NA 12:00:00 TS 18.50 -46.50 1628 1624 _____________O -1 18.50 -46.50 TS 35 12 307
1871 NA NA 15:00:00 TS 18.89 -47.00 1647 1643 _____________P -1 18.89 -47.00 TS 35 12 310
1871 NA NA 18:00:00 TS 19.30 -47.50 1666 1661 _____________O -1 19.30 -47.50 TS 35 12 308
1871 NA NA 21:00:00 TS 19.65 -48.02 1674 1674 _____________P -1 19.65 -48.02 TS 35 12 307
1871 NA NA 1871-09-07 00:00:00 TS 20.00 -48.50 1694 1682 _____________O -1 20.00 -48.50 TS 35 11 311
1871 NA NA 03:00:00 TS 20.40 -48.92 1689 1679 _____________P -1 20.40 -48.92 TS 35 11 317
1871 NA NA 06:00:00 TS 20.80 -49.30 1685 1676 _____________O -1 20.80 -49.30 TS 35 10 317
1871 NA NA 09:00:00 TS 21.14 -49.66 1676 1666 _____________P -1 21.14 -49.66 TS 37 10 317
1871 NA NA 12:00:00 TS 21.50 -50.00 1666 1641 _____________O -1 21.50 -50.00 TS 40 10 321
1871 NA NA 15:00:00 TS 21.93 -50.35 1633 1612 _____________P -1 21.93 -50.35 TS 40 11 324
1871 NA NA 18:00:00 TS 22.40 -50.70 1614 1593 _____________O -1 22.40 -50.70 TS 40 11 325
1871 NA NA 21:00:00 TS 22.85 -51.05 1586 1569 _____________P -1 22.85 -51.05 TS 40 11 324
1871 NA NA 1871-09-08 00:00:00 TS 23.30 -51.40 1572 1554 _____________O -1 23.30 -51.40 TS 40 11 324
1871 NA NA 03:00:00 TS 23.76 -51.76 1552 1540 _____________P -1 23.76 -51.76 TS 40 11 325
1871 NA NA 06:00:00 TS 24.20 -52.10 1540 1525 _____________O -1 24.20 -52.10 TS 40 10 325
1871 NA NA 09:00:00 TS 24.61 -52.42 1529 1516 _____________P -1 24.61 -52.42 TS 42 10 326
1871 NA NA 12:00:00 TS 25.00 -52.70 1521 1514 _____________O -1 25.00 -52.70 TS 45 9 328
1871 NA NA 15:00:00 TS 25.41 -52.97 1515 1514 _____________P -1 25.41 -52.97 TS 45 9 331
1871 NA NA 18:00:00 TS 25.80 -53.20 1520 1517 _____________O -1 25.80 -53.20 TS 45 8 332
1871 NA NA 21:00:00 TS 26.15 -53.40 1520 1518 _____________P -1 26.15 -53.40 TS 45 8 333
1871 NA NA 1871-09-09 00:00:00 TS 26.50 -53.60 1528 1526 _____________O -1 26.50 -53.60 TS 45 9 332
1871 NA NA 03:00:00 TS 26.90 -53.85 1537 1529 _____________P -1 26.90 -53.85 TS 45 9 331
1871 NA NA 06:00:00 TS 27.30 -54.10 1540 1538 _____________O -1 27.30 -54.10 TS 45 8 330
1871 NA NA 09:00:00 TS 27.63 -54.32 1545 1545 _____________P -1 27.63 -54.32 TS 47 8 333
1871 NA NA 12:00:00 TS 28.00 -54.50 1559 1559 _____________O -1 28.00 -54.50 TS 50 10 340
1871 NA NA 15:00:00 TS 28.53 -54.68 1582 1582 _____________P -1 28.53 -54.68 TS 50 11 347
1871 NA NA 18:00:00 TS 29.10 -54.80 1621 1621 _____________O -1 29.10 -54.80 TS 50 11 353
1871 NA NA 21:00:00 TS 29.60 -54.82 1661 1661 _____________P -1 29.60 -54.82 TS 50 10 1
1871 NA NA 1871-09-10 00:00:00 TS 30.10 -54.80 1702 1702 _____________O -1 30.10 -54.80 TS 50 11 0
1871 NA NA 03:00:00 TS 30.65 -54.80 1698 1650 _____________P -1 30.65 -54.80 TS 50 11 0
1871 NA NA 06:00:00 TS 31.20 -54.80 1650 1598 _____________O -1 31.20 -54.80 TS 50 10 0
1871 NA NA 09:00:00 TS 31.68 -54.79 1598 1545 _____________P -1 31.68 -54.79 TS 52 10 1
1871 NA NA 12:00:00 TS 32.20 -54.80 1545 1478 _____________O -1 32.20 -54.80 TS 55 12 355
1871 NA NA 15:00:00 TS 32.84 -54.91 1478 1402 _____________P -1 32.84 -54.91 TS 55 13 353
1871 NA NA 18:00:00 TS 33.50 -55.00 1402 1339 _____________O -1 33.50 -55.00 TS 55 13 358
1871 NA NA 21:00:00 TS 34.10 -54.97 1339 1280 _____________P -1 34.10 -54.97 TS 57 12 4
1871 NA NA 1871-09-11 00:00:00 TS 34.70 -54.90 1280 1222 _____________O -1 34.70 -54.90 TS 60 13 5
1871 NA NA 03:00:00 TS 35.35 -54.84 1212 1151 _____________P -1 35.35 -54.84 TS 60 13 4
1871 NA NA 06:00:00 TS 36.00 -54.80 1151 1097 _____________O -1 36.00 -54.80 TS 60 12 0
1871 NA NA 09:00:00 TS 36.58 -54.87 1087 1032 _____________P -1 36.58 -54.87 TS 60 12 1
1871 NA NA 12:00:00 TS 37.20 -54.80 1032 969 _____________O -1 37.20 -54.80 TS 60 14 15
1871 NA NA 15:00:00 TS 37.97 -54.39 958 867 _____________P -1 37.97 -54.39 TS 65 18 26
1871 NA NA 18:00:00 TS 38.80 -53.80 867 778 _____________O -1 38.80 -53.80 HU 70 19 28
1871 NA NA 21:00:00 TS 39.66 -53.23 767 690 _____________P -1 39.66 -53.23 HU 70 18 30
1871 NA NA 1871-09-12 00:00:00 TS 40.40 -52.60 690 649 _____________O -1 40.40 -52.60 HU 70 15 39
1871 NA NA 03:00:00 TS 40.87 -51.96 640 619 _____________P -1 40.87 -51.96 HU 70 13 53
1871 NA NA 06:00:00 TS 41.20 -51.20 621 606 _____________O -1 41.20 -51.20 HU 70 15 62
1871 NA NA 09:00:00 TS 41.55 -50.25 615 604 _____________P -1 41.55 -50.25 HU 70 17 66
1871 NA NA 12:00:00 TS 41.90 -49.10 615 614 _____________O -1 41.90 -49.10 HU 70 20 68
1871 NA NA 15:00:00 TS 42.29 -47.76 640 640 _____________P -1 42.29 -47.76 HU 70 21 68
1871 NA NA 18:00:00 TS 42.70 -46.40 688 688 _____________O -1 42.70 -46.40 HU 70 20 66
1871 NA NA 21:00:00 TS 43.10 -45.23 736 736 _____________P -1 43.10 -45.23 HU 70 19 62
1871 NA NA 1871-09-13 00:00:00 TS 43.60 -44.10 779 779 _____________O -1 43.60 -44.10 HU 70 21 56
1871 NA NA 03:00:00 TS 44.26 -42.87 826 826 _____________P -1 44.26 -42.87 HU 70 23 52
1871 NA NA 06:00:00 TS 45.00 -41.60 885 885 _____________O -1 45.00 -41.60 HU 70 23 52
1871 NA NA 09:00:00 TS 45.70 -40.27 955 955 _____________P -1 45.70 -40.27 HU 70 23 52
1871 NA NA 12:00:00 TS 46.40 -39.00 1033 1033 _____________O -1 46.40 -39.00 HU 70 21 49
1871 NA NA 15:00:00 TS 47.10 -37.91 1102 1102 _____________P -1 47.10 -37.91 HU 70 20 46
1871 NA NA 18:00:00 TS 47.80 -36.90 1169 1169 _____________O -1 47.80 -36.90 HU 70 20 45
1871 NA NA 21:00:00 TS 48.51 -35.83 1246 1246 _____________P -1 48.51 -35.83 HU 70 20 45
1871 NA NA 1871-09-14 00:00:00 TS 49.20 -34.80 1317 1276 _____________O -1 49.20 -34.80 HU 70 985 18 44
1871 NA NA 03:00:00 TS 49.82 -33.92 1279 1246 _____________P -1 49.82 -33.92 HU 67 17 46
1871 NA NA 06:00:00 TS 50.40 -32.90 1249 1239 _____________O -1 50.40 -32.90 HU 65 19 54
1871 NA NA 09:00:00 TS 50.96 -31.45 1238 1238 _____________P -1 50.96 -31.45 HU 62 22 61
1871 NA NA 12:00:00 ET 51.50 -29.80 1256 1201 _____________O -1 51.50 -29.80 EX 60 23 62
1871 NA NA 15:00:00 ET 52.05 -28.15 1193 1086 _____________P -1 52.05 -28.15 EX 60 23 62
1871 NA NA 18:00:00 ET 52.60 -26.50 1080 _____________O -1 52.60 -26.50 EX 60 23 61